createdAt,value
2022-10-09T00:01:24.021Z,11.43
2022-10-09T00:03:52.724Z,7.15
2022-10-09T00:06:23.001Z,9.32
2022-10-09T00:08:50.431Z,6.75
2022-10-09T00:11:26.197Z,11.02
2022-10-09T00:13:54.713Z,5.68
2022-10-09T00:16:22.938Z,10.02
2022-10-09T00:18:51.057Z,11.55
2022-10-09T00:21:21.345Z,6.78
2022-10-09T00:23:49.240Z,6.83
2022-10-09T00:26:16.795Z,9.55
2022-10-09T00:28:43.881Z,12.50
2022-10-09T00:31:11.928Z,8.38
2022-10-09T00:33:39.703Z,9.25
2022-10-09T00:36:09.370Z,7.53
2022-10-09T00:38:36.632Z,8.50
2022-10-09T00:41:03.705Z,6.93
2022-10-09T00:43:43.492Z,9.38
2022-10-09T00:46:27.602Z,10.98
2022-10-09T00:49:12.715Z,9.75
2022-10-09T00:51:41.323Z,6.18
2022-10-09T00:54:11.791Z,8.73
2022-10-09T00:56:39.074Z,12.93
2022-10-09T00:59:07.027Z,10.77
2022-10-09T01:01:34.219Z,9.00
2022-10-09T01:04:01.177Z,10.85
2022-10-09T01:07:22.068Z,7.00
2022-10-09T01:10:05.885Z,21.03
2022-10-09T01:13:28.607Z,13.27
2022-10-09T01:16:10.103Z,14.88
2022-10-09T01:19:01.333Z,9.40
2022-10-09T01:21:52.505Z,8.10
2022-10-09T01:24:33.640Z,11.25
2022-10-09T01:27:28.357Z,8.32
2022-10-09T01:30:04.062Z,7.78
2022-10-09T01:32:38.829Z,5.95
2022-10-09T01:35:08.116Z,6.40
2022-10-09T01:37:37.115Z,7.20
2022-10-09T01:40:07.685Z,11.95
2022-10-09T01:42:34.790Z,7.20
2022-10-09T01:45:01.985Z,9.20
2022-10-09T01:47:29.011Z,7.55
2022-10-09T01:50:09.451Z,6.80
2022-10-09T01:52:52.055Z,7.57
2022-10-09T01:55:39.239Z,7.22
2022-10-09T01:58:22.662Z,7.15
2022-10-09T02:01:17.639Z,9.25
2022-10-09T02:03:49.049Z,9.35
2022-10-09T02:08:47.134Z,8.70
2022-10-09T02:11:17.538Z,15.02
2022-10-09T02:13:47.843Z,9.95
2022-10-09T02:16:43.658Z,9.40
2022-10-09T02:19:39.891Z,10.25
2022-10-09T02:22:19.250Z,10.57
2022-10-09T02:24:46.964Z,7.40
2022-10-09T02:27:14.970Z,11.05
2022-10-09T02:29:43.754Z,8.50
2022-10-09T02:32:11.677Z,11.57
2022-10-09T02:34:38.982Z,6.53
2022-10-09T02:37:06.390Z,8.52
2022-10-09T02:39:33.291Z,8.80
2022-10-09T02:42:00.724Z,8.85
2022-10-09T02:44:27.806Z,8.90
2022-10-09T02:46:54.842Z,7.18
2022-10-09T02:49:22.245Z,8.15
2022-10-09T02:51:49.160Z,9.10
2022-10-09T02:54:16.069Z,14.05
2022-10-09T02:56:42.970Z,9.77
2022-10-09T02:59:10.394Z,12.25
2022-10-09T03:01:37.503Z,9.40
2022-10-09T03:04:04.950Z,7.28
2022-10-09T03:06:32.043Z,11.90
2022-10-09T03:08:59.060Z,9.40
2022-10-09T03:11:26.881Z,10.63
2022-10-09T03:13:54.783Z,8.50
2022-10-09T03:16:24.041Z,8.93
2022-10-09T03:18:52.244Z,23.42
2022-10-09T03:21:21.544Z,14.15
2022-10-09T03:23:49.734Z,25.58
2022-10-09T03:26:19.358Z,15.32
2022-10-09T03:28:48.733Z,15.07
2022-10-09T03:31:39.338Z,17.25
2022-10-09T03:34:04.936Z,13.43
2022-10-09T03:36:31.885Z,11.40
2022-10-09T03:38:58.787Z,24.52
2022-10-09T03:41:25.795Z,16.50
2022-10-09T03:43:52.672Z,13.15
2022-10-09T03:46:19.653Z,11.88
2022-10-09T03:48:46.696Z,17.42
2022-10-09T03:51:13.675Z,7.70
2022-10-09T03:53:40.590Z,7.38
2022-10-09T03:56:07.746Z,12.95
2022-10-09T03:58:34.743Z,12.48
2022-10-09T04:01:01.761Z,13.32
2022-10-09T04:03:29.169Z,10.68
2022-10-09T04:05:56.036Z,7.30
2022-10-09T04:08:23.025Z,13.95
2022-10-09T04:10:56.939Z,12.98
2022-10-09T04:13:23.941Z,8.82
2022-10-09T04:15:54.545Z,8.15
2022-10-09T04:18:22.119Z,19.90
2022-10-09T04:20:51.314Z,15.18
2022-10-09T04:23:19.382Z,18.75
2022-10-09T04:25:46.677Z,15.07
2022-10-09T04:28:14.012Z,14.68
2022-10-09T04:30:41.459Z,10.07
2022-10-09T04:33:12.686Z,10.77
2022-10-09T04:35:44.405Z,9.80
2022-10-09T04:40:38.449Z,23.17
2022-10-09T04:43:05.498Z,15.15
2022-10-09T04:45:32.762Z,16.80
2022-10-09T04:48:00.149Z,13.45
2022-10-09T04:50:27.199Z,10.27
2022-10-09T04:53:00.359Z,10.98
2022-10-09T04:55:27.255Z,13.20
2022-10-09T04:57:54.193Z,10.80
2022-10-09T05:00:21.165Z,14.23
2022-10-09T05:02:48.563Z,9.85
2022-10-09T05:05:15.773Z,12.18
2022-10-09T05:07:42.708Z,14.75
2022-10-09T05:10:09.829Z,13.98
2022-10-09T05:12:36.745Z,8.48
2022-10-09T05:15:05.035Z,14.93
2022-10-09T05:17:32.074Z,25.92
2022-10-09T05:19:59.015Z,20.00
2022-10-09T05:22:25.910Z,16.77
2022-10-09T05:24:54.030Z,21.20
2022-10-09T05:27:20.979Z,17.30
2022-10-09T05:29:47.969Z,17.80
2022-10-09T05:32:15.113Z,30.63
2022-10-09T05:34:42.858Z,20.70
2022-10-09T05:37:09.902Z,26.42
2022-10-09T05:39:38.480Z,23.85
2022-10-09T05:42:05.846Z,19.40
2022-10-09T05:44:32.926Z,24.20
2022-10-09T05:46:59.863Z,23.60
2022-10-09T05:49:26.874Z,25.60
2022-10-09T05:51:54.318Z,20.73
2022-10-09T05:54:21.269Z,14.45
2022-10-09T05:56:48.333Z,20.80
2022-10-09T05:59:19.901Z,21.67
2022-10-09T06:01:51.881Z,23.30
2022-10-09T06:04:21.454Z,29.02
2022-10-09T06:06:49.161Z,24.13
2022-10-09T06:09:18.117Z,43.83
2022-10-09T06:11:45.340Z,34.30
2022-10-09T06:14:13.582Z,18.48
2022-10-09T06:19:14.834Z,26.13
2022-10-09T06:21:42.633Z,22.08
2022-10-09T06:24:17.648Z,19.27
2022-10-09T06:26:44.648Z,28.40
2022-10-09T06:29:11.806Z,21.73
2022-10-09T06:31:38.992Z,25.10
2022-10-09T06:34:06.016Z,39.08
2022-10-09T06:36:35.217Z,37.15
2022-10-09T06:39:06.520Z,21.92
2022-10-09T06:44:16.316Z,21.00
2022-10-09T06:46:45.084Z,19.40
2022-10-09T06:49:12.870Z,20.27
2022-10-09T06:51:39.999Z,15.63
2022-10-09T06:54:13.459Z,17.23
2022-10-09T06:56:40.899Z,40.85
2022-10-09T06:59:08.750Z,25.60
2022-10-09T07:01:35.746Z,17.88
2022-10-09T07:04:07.273Z,23.27
2022-10-09T07:06:38.029Z,20.58
2022-10-09T07:09:07.711Z,21.17
2022-10-09T07:11:36.938Z,16.65
2022-10-09T07:14:06.460Z,37.88
2022-10-09T07:16:38.822Z,38.00
2022-10-09T07:19:17.771Z,22.08
2022-10-09T07:21:47.198Z,29.45
2022-10-09T07:24:14.733Z,26.13
2022-10-09T07:26:44.538Z,19.55
2022-10-09T07:29:15.729Z,22.02
2022-10-09T07:34:09.584Z,29.20
2022-10-09T07:36:36.781Z,25.95
2022-10-09T07:39:04.994Z,25.67
2022-10-09T07:41:32.199Z,21.00
2022-10-09T07:43:59.223Z,34.80
2022-10-09T07:46:33.049Z,22.67
2022-10-09T07:49:00.898Z,17.75
2022-10-09T07:51:29.519Z,21.42
2022-10-09T07:53:57.698Z,14.27
2022-10-09T07:56:29.620Z,18.67
2022-10-09T07:58:59.043Z,25.60
2022-10-09T08:01:29.881Z,13.68
2022-10-09T08:03:59.953Z,25.55
2022-10-09T08:06:27.843Z,20.65
2022-10-09T08:08:57.543Z,18.02
2022-10-09T08:11:25.777Z,14.82
2022-10-09T08:13:54.209Z,10.10
2022-10-09T08:16:22.645Z,17.27
2022-10-09T08:18:49.719Z,7.57
2022-10-09T08:21:18.954Z,8.85
2022-10-09T08:23:46.712Z,9.77
2022-10-09T08:26:16.268Z,7.47
2022-10-09T08:28:43.600Z,20.83
2022-10-09T08:31:15.691Z,8.40
2022-10-09T08:33:43.272Z,14.32
2022-10-09T08:36:12.419Z,13.80
2022-10-09T08:38:48.171Z,9.77
2022-10-09T08:41:52.893Z,10.13
2022-10-09T08:44:33.609Z,8.10
2022-10-09T08:47:26.348Z,13.45
2022-10-09T08:50:23.310Z,6.55
2022-10-09T08:52:59.035Z,14.40
2022-10-09T08:55:32.989Z,5.80
2022-10-09T08:58:05.881Z,6.25
2022-10-09T09:00:43.187Z,10.27
2022-10-09T09:03:43.035Z,8.63
2022-10-09T09:06:40.794Z,14.50
2022-10-09T09:09:51.445Z,17.08
2022-10-09T09:12:42.206Z,9.50
2022-10-09T09:15:59.974Z,10.93
2022-10-09T09:47:34.838Z,4.15
2022-10-09T09:50:06.228Z,19.52
2022-10-09T09:52:43.416Z,8.40
2022-10-09T09:55:29.161Z,12.90
2022-10-09T09:58:07.737Z,6.82
2022-10-09T10:00:35.883Z,4.65
2022-10-09T10:03:11.122Z,11.60
2022-10-09T10:05:39.235Z,9.27
2022-10-09T10:08:35.471Z,6.72
2022-10-09T10:11:06.713Z,8.75
2022-10-09T10:13:47.659Z,9.07
2022-10-09T10:18:48.937Z,6.07
2022-10-09T10:21:19.048Z,6.20
2022-10-09T10:24:10.674Z,16.37
2022-10-09T10:26:51.415Z,8.93
2022-10-09T10:29:23.784Z,8.30
2022-10-09T10:32:29.476Z,7.22
2022-10-09T10:35:17.501Z,20.00
2022-10-09T10:38:14.142Z,8.95
2022-10-09T10:40:56.886Z,7.70
2022-10-09T10:44:02.194Z,13.63
2022-10-09T10:46:39.947Z,4.85
2022-10-09T10:49:11.689Z,8.10
2022-10-09T10:52:09.767Z,7.20
2022-10-09T10:54:41.075Z,4.28
2022-10-09T10:57:16.934Z,9.55
2022-10-09T11:00:11.184Z,4.28
2022-10-09T11:03:17.084Z,15.38
2022-10-09T11:05:53.973Z,5.85
2022-10-09T11:09:07.125Z,9.20
2022-10-09T11:11:48.016Z,7.72
2022-10-09T11:21:00.486Z,4.95
2022-10-09T11:23:42.924Z,5.22
2022-10-09T11:26:42.257Z,13.70
2022-10-09T11:42:32.516Z,11.55
2022-10-09T11:48:16.877Z,4.57
2022-10-09T11:51:01.586Z,7.78
2022-10-09T11:53:31.847Z,7.10
2022-10-09T11:56:28.736Z,14.95
2022-10-09T11:59:06.477Z,7.30
2022-10-09T12:01:44.842Z,9.35
2022-10-09T12:04:54.011Z,4.60
2022-10-09T12:07:47.271Z,7.15
2022-10-09T12:10:34.142Z,7.55
2022-10-09T12:13:05.077Z,4.75
2022-10-09T12:15:54.947Z,8.25
2022-10-09T12:18:27.811Z,9.95
2022-10-09T12:20:56.628Z,9.45
2022-10-09T12:23:27.936Z,9.98
2022-10-09T12:25:56.980Z,5.15
2022-10-09T12:28:39.383Z,5.05
2022-10-09T12:31:18.797Z,4.30
2022-10-09T12:33:51.869Z,7.70
2022-10-09T12:36:29.769Z,10.70
2022-10-09T12:38:57.195Z,4.38
2022-10-09T12:41:30.386Z,9.10
2022-10-09T12:43:58.893Z,8.50
2022-10-09T12:46:32.008Z,5.30
2022-10-09T12:49:00.826Z,7.57
2022-10-09T12:51:30.205Z,4.70
2022-10-09T12:53:57.208Z,6.22
2022-10-09T12:56:29.901Z,12.98
2022-10-09T12:58:58.899Z,4.55
2022-10-09T13:01:26.621Z,7.07
2022-10-09T13:04:05.333Z,3.95
2022-10-09T13:06:50.594Z,6.10
2022-10-09T13:09:37.372Z,7.22
2022-10-09T13:12:22.924Z,6.22
2022-10-09T13:14:55.577Z,4.90
2022-10-09T13:17:33.753Z,8.80
2022-10-09T13:20:04.500Z,6.50
2022-10-09T13:22:35.187Z,16.92
2022-10-09T13:25:04.454Z,7.45
2022-10-09T13:27:35.159Z,13.43
2022-10-09T13:30:02.428Z,6.95
2022-10-09T13:32:29.471Z,5.63
2022-10-09T13:34:58.194Z,8.15
2022-10-09T13:37:26.806Z,6.93
2022-10-09T13:39:56.034Z,4.93
2022-10-09T13:42:26.552Z,8.52
2022-10-09T13:44:54.164Z,6.00
2022-10-09T13:47:24.665Z,5.65
2022-10-09T13:49:51.950Z,8.38
2022-10-09T13:52:18.947Z,7.03
2022-10-09T13:54:45.810Z,4.72
2022-10-09T13:57:12.911Z,12.82
2022-10-09T13:59:40.032Z,4.25
2022-10-09T14:02:07.436Z,12.20
2022-10-09T14:04:34.432Z,6.05
2022-10-09T14:07:01.362Z,9.60
2022-10-09T14:09:28.438Z,6.82
2022-10-09T14:11:55.429Z,10.35
2022-10-09T14:14:22.692Z,6.10
2022-10-09T14:16:50.920Z,9.10
2022-10-09T14:19:18.329Z,8.00
2022-10-09T14:21:47.004Z,14.18
2022-10-09T14:24:14.774Z,12.23
2022-10-09T14:26:41.736Z,6.05
2022-10-09T14:29:10.116Z,7.82
2022-10-09T14:31:37.296Z,7.50
2022-10-09T14:34:04.537Z,5.90
2022-10-09T14:36:31.960Z,9.30
2022-10-09T14:39:01.745Z,13.32
2022-10-09T14:41:32.140Z,11.35
2022-10-09T14:44:01.219Z,9.18
2022-10-09T14:46:29.740Z,10.02
2022-10-09T14:48:57.958Z,12.82
2022-10-09T14:51:26.975Z,10.20
2022-10-09T14:54:00.767Z,8.48
2022-10-09T14:56:28.281Z,9.55
2022-10-09T14:58:57.967Z,6.72
2022-10-09T15:01:24.908Z,10.45
2022-10-09T15:03:51.995Z,8.73
2022-10-09T15:06:24.025Z,10.85
2022-10-09T15:08:56.001Z,8.93
2022-10-09T15:11:23.500Z,13.40
2022-10-09T15:13:50.412Z,10.93
2022-10-09T15:16:19.155Z,12.70
2022-10-09T15:18:48.286Z,11.75
2022-10-09T15:21:23.750Z,11.45
2022-10-09T15:23:53.657Z,9.90
2022-10-09T15:26:20.531Z,13.93
2022-10-09T15:28:47.589Z,10.50
2022-10-09T15:31:35.384Z,11.32
2022-10-09T15:34:02.837Z,17.25
2022-10-09T15:36:33.484Z,15.55
2022-10-09T15:39:05.860Z,20.17
2022-10-09T15:41:35.475Z,14.32
2022-10-09T15:44:05.923Z,14.00
2022-10-09T15:46:32.968Z,16.15
2022-10-09T15:49:00.018Z,15.43
2022-10-09T15:51:27.105Z,15.88
2022-10-09T15:53:54.061Z,18.65
2022-10-09T15:56:23.800Z,15.55
2022-10-09T15:58:52.122Z,15.60
2022-10-09T16:01:19.894Z,21.30
2022-10-09T16:03:47.393Z,17.38
2022-10-09T16:06:17.704Z,12.52
2022-10-09T16:08:46.298Z,11.90
2022-10-09T16:11:17.929Z,14.85
2022-10-09T16:13:48.301Z,13.43
2022-10-09T16:16:21.739Z,19.05
2022-10-09T16:18:49.252Z,23.00
2022-10-09T16:21:28.135Z,21.67
2022-10-09T16:23:58.745Z,27.55
2022-10-09T16:28:53.463Z,16.00
2022-10-09T16:31:28.767Z,20.05
2022-10-09T16:33:56.013Z,17.02
2022-10-09T16:36:23.576Z,14.70
2022-10-09T16:38:50.563Z,15.15
2022-10-09T16:41:20.061Z,14.23
2022-10-09T16:43:49.305Z,20.83
2022-10-09T16:46:25.364Z,15.05
2022-10-09T16:48:53.668Z,15.88
2022-10-09T16:51:32.234Z,12.90
2022-10-09T16:54:01.863Z,15.57
2022-10-09T16:56:34.600Z,18.38
2022-10-09T16:59:04.825Z,19.27
2022-10-09T17:01:32.625Z,17.42
2022-10-09T17:04:00.188Z,13.88
2022-10-09T17:06:27.906Z,16.33
2022-10-09T17:08:57.892Z,15.93
2022-10-09T17:11:26.799Z,18.15
2022-10-09T17:13:56.924Z,17.73
2022-10-09T17:16:26.525Z,17.13
2022-10-09T17:18:54.549Z,16.48
2022-10-09T17:21:21.609Z,22.23
2022-10-09T17:23:52.607Z,22.98
2022-10-09T17:28:47.416Z,18.45
2022-10-09T17:31:17.544Z,16.88
2022-10-09T17:33:46.369Z,15.83
2022-10-09T17:36:19.133Z,17.35
2022-10-09T17:38:47.044Z,15.07
2022-10-09T17:41:15.317Z,17.08
2022-10-09T17:43:42.608Z,15.75
2022-10-09T17:46:09.757Z,22.30
2022-10-09T17:48:38.552Z,17.95
2022-10-09T17:51:05.814Z,15.57
2022-10-09T17:53:32.762Z,22.73
2022-10-09T17:56:03.451Z,18.50
2022-10-09T17:58:30.695Z,16.92
2022-10-09T18:00:57.807Z,15.70
2022-10-09T18:03:24.803Z,17.23
2022-10-09T18:05:51.800Z,24.83
2022-10-09T18:08:19.853Z,16.50
2022-10-09T18:10:47.045Z,17.38
2022-10-09T18:13:14.395Z,20.58
2022-10-09T18:15:43.171Z,20.52
2022-10-09T18:18:11.431Z,19.92
2022-10-09T18:20:39.668Z,24.52
2022-10-09T18:23:08.014Z,23.10
2022-10-09T18:25:36.082Z,15.75
2022-10-09T18:28:03.112Z,17.90
2022-10-09T18:30:30.057Z,18.27
2022-10-09T18:32:57.082Z,22.75
2022-10-09T18:35:25.616Z,19.13
2022-10-09T18:37:52.772Z,18.88
2022-10-09T18:40:19.826Z,17.70
2022-10-09T18:42:46.845Z,15.82
2022-10-09T18:45:14.787Z,19.77
2022-10-09T18:47:42.093Z,14.15
2022-10-09T18:50:12.465Z,20.42
2022-10-09T18:52:41.725Z,19.10
2022-10-09T18:55:12.469Z,16.50
2022-10-09T18:57:41.167Z,20.08
2022-10-09T19:00:09.642Z,22.23
2022-10-09T19:05:11.729Z,25.70
2022-10-09T19:07:38.644Z,20.45
2022-10-09T19:10:07.048Z,19.60
2022-10-09T19:12:34.168Z,18.70
2022-10-09T19:15:01.117Z,17.45
2022-10-09T19:17:28.169Z,15.85
2022-10-09T19:19:55.158Z,17.27
2022-10-09T19:22:24.039Z,19.90
2022-10-09T19:24:51.196Z,20.98
2022-10-09T19:27:18.204Z,17.40
2022-10-09T19:29:45.202Z,16.65
2022-10-09T19:32:12.092Z,19.35
2022-10-09T19:34:39.030Z,18.50
2022-10-09T19:39:37.883Z,16.48
2022-10-09T19:42:04.984Z,18.52
2022-10-09T19:44:31.913Z,16.95
2022-10-09T19:46:58.827Z,24.70
2022-10-09T19:49:25.789Z,18.60
2022-10-09T19:51:52.757Z,21.33
2022-10-09T19:54:19.638Z,19.10
2022-10-09T19:56:46.515Z,15.25
2022-10-09T19:59:13.450Z,18.40
2022-10-09T20:01:40.626Z,19.23
2022-10-09T20:04:09.932Z,21.65
2022-10-09T20:06:38.732Z,15.02
2022-10-09T20:09:07.170Z,19.77
2022-10-09T20:11:35.091Z,21.70
2022-10-09T20:14:02.969Z,19.00
2022-10-09T20:16:32.281Z,17.65
2022-10-09T20:19:03.187Z,16.33
2022-10-09T20:21:32.742Z,16.55
2022-10-09T20:24:01.250Z,18.08
2022-10-09T20:26:29.937Z,19.90
2022-10-09T20:28:57.294Z,19.10
2022-10-09T20:31:26.078Z,19.95
2022-10-09T20:33:54.672Z,17.48
2022-10-09T20:36:35.348Z,16.88
2022-10-09T20:39:05.796Z,18.10
2022-10-09T20:41:33.799Z,17.48
2022-10-09T20:44:02.206Z,20.45
2022-10-09T20:46:31.316Z,16.60
2022-10-09T20:48:59.704Z,15.63
2022-10-09T20:51:26.989Z,17.58
2022-10-09T20:53:57.183Z,16.70
2022-10-09T20:56:26.501Z,18.00
2022-10-09T20:58:54.953Z,21.00
2022-10-09T21:01:22.568Z,17.55
2022-10-09T21:03:49.912Z,18.73
2022-10-09T21:06:19.209Z,18.95
2022-10-09T21:08:46.648Z,22.60
2022-10-09T21:11:19.131Z,14.05
2022-10-09T21:13:46.970Z,15.75
2022-10-09T21:16:21.377Z,20.20
2022-10-09T21:18:52.772Z,17.35
2022-10-09T21:21:19.812Z,18.33
2022-10-09T21:23:50.879Z,18.65
2022-10-09T21:28:45.815Z,16.63
2022-10-09T21:31:16.772Z,15.98
2022-10-09T21:33:43.779Z,14.35
2022-10-09T21:36:21.197Z,15.23
2022-10-09T21:38:48.309Z,15.80
2022-10-09T21:41:15.235Z,22.83
2022-10-09T21:43:42.091Z,18.13
2022-10-09T21:46:09.030Z,16.42
2022-10-09T21:48:35.957Z,15.57
2022-10-09T21:51:03.023Z,21.38
2022-10-09T21:53:29.918Z,18.38
2022-10-09T21:55:56.946Z,18.25
2022-10-09T21:58:23.863Z,19.70
2022-10-09T22:00:58.578Z,18.35
2022-10-09T22:03:27.722Z,15.57
2022-10-09T22:05:54.694Z,18.00
2022-10-09T22:08:22.067Z,13.68
2022-10-09T22:10:49.742Z,13.82
2022-10-09T22:13:18.279Z,13.52
2022-10-09T22:15:50.752Z,13.85
2022-10-09T22:18:18.658Z,16.08
2022-10-09T22:20:48.269Z,26.95
2022-10-09T22:23:16.145Z,16.60
2022-10-09T22:25:43.134Z,16.23
2022-10-09T22:28:10.323Z,18.02
2022-10-09T22:30:37.232Z,18.00
2022-10-09T22:33:04.458Z,14.45
2022-10-09T22:35:31.424Z,17.75
2022-10-09T22:37:58.362Z,15.00
2022-10-09T22:40:25.422Z,14.15
2022-10-09T22:42:52.895Z,15.43
2022-10-09T22:45:19.970Z,15.68
2022-10-09T22:47:48.012Z,15.45
2022-10-09T22:50:15.009Z,18.23
2022-10-09T22:52:42.069Z,18.65
2022-10-09T22:55:09.424Z,13.30
2022-10-09T22:57:36.406Z,20.42
2022-10-09T23:00:05.401Z,21.45
2022-10-09T23:02:32.373Z,14.50
2022-10-09T23:04:59.412Z,19.45
2022-10-09T23:07:26.378Z,18.02
2022-10-09T23:09:53.283Z,19.38
2022-10-09T23:12:20.191Z,20.98
2022-10-09T23:14:47.290Z,11.93
2022-10-09T23:17:14.347Z,13.57
2022-10-09T23:19:41.238Z,13.23
2022-10-09T23:22:08.159Z,14.13
2022-10-09T23:24:35.073Z,19.27
2022-10-09T23:27:02.043Z,14.65
2022-10-09T23:29:29.075Z,16.20
2022-10-09T23:31:56.017Z,17.17
2022-10-09T23:34:22.957Z,12.13
2022-10-09T23:36:49.904Z,19.70
2022-10-09T23:39:17.404Z,14.50
2022-10-09T23:41:44.481Z,13.52
2022-10-09T23:44:11.569Z,16.08
2022-10-09T23:46:38.505Z,24.55
2022-10-09T23:49:05.646Z,13.60
2022-10-09T23:51:32.605Z,17.10
2022-10-09T23:53:59.956Z,14.55
2022-10-09T23:56:35.940Z,17.17
2022-10-09T23:59:06.201Z,18.05
